createdAt,value
2023-02-23T00:01:41.908Z,25.15
2023-02-23T00:04:10.526Z,25.17
2023-02-23T00:06:39.564Z,25.16
2023-02-23T00:09:22.875Z,25.17
2023-02-23T00:11:51.518Z,25.17
2023-02-23T00:14:21.426Z,25.23
2023-02-23T00:16:49.460Z,25.24
2023-02-23T00:19:17.702Z,25.24
2023-02-23T00:21:46.759Z,25.26
2023-02-23T00:24:16.712Z,25.29
2023-02-23T00:26:45.374Z,25.30
2023-02-23T00:29:17.416Z,25.30
2023-02-23T00:31:47.402Z,25.32
2023-02-23T00:34:16.940Z,25.33
2023-02-23T00:36:44.922Z,25.32
2023-02-23T00:39:21.582Z,25.30
2023-02-23T00:41:50.281Z,25.30
2023-02-23T00:44:18.220Z,25.25
2023-02-23T00:46:49.610Z,25.06
2023-02-23T00:49:18.142Z,25.08
2023-02-23T00:51:46.920Z,25.18
2023-02-23T00:54:16.142Z,25.09
2023-02-23T00:56:44.200Z,25.16
2023-02-23T00:59:13.150Z,25.16
2023-02-23T01:01:42.808Z,25.16
2023-02-23T01:04:14.009Z,25.15
2023-02-23T01:06:43.105Z,25.15
2023-02-23T01:09:13.961Z,25.14
2023-02-23T01:11:42.433Z,25.04
2023-02-23T01:14:12.100Z,25.12
2023-02-23T01:16:42.256Z,25.10
2023-02-23T01:19:13.386Z,24.92
2023-02-23T01:21:43.954Z,25.10
2023-02-23T01:24:13.670Z,25.07
2023-02-23T01:26:44.802Z,25.06
2023-02-23T01:29:14.979Z,25.05
2023-02-23T01:31:45.634Z,25.04
2023-02-23T01:34:19.510Z,25.04
2023-02-23T01:36:47.715Z,25.04
2023-02-23T01:39:18.135Z,25.03
2023-02-23T01:41:46.669Z,25.03
2023-02-23T01:44:53.251Z,25.01
2023-02-23T01:47:21.506Z,24.98
2023-02-23T01:49:51.222Z,24.99
2023-02-23T01:52:20.838Z,24.99
2023-02-23T01:54:53.006Z,25.01
2023-02-23T01:57:26.982Z,25.03
2023-02-23T01:59:56.111Z,25.04
2023-02-23T02:02:33.140Z,25.07
2023-02-23T02:05:05.117Z,25.05
2023-02-23T02:07:35.973Z,25.06
2023-02-23T02:10:39.656Z,25.02
2023-02-23T02:13:09.823Z,25.01
2023-02-23T02:15:53.821Z,25.01
2023-02-23T02:18:31.313Z,24.99
2023-02-23T02:21:36.029Z,24.96
2023-02-23T02:24:36.845Z,24.93
2023-02-23T02:27:21.885Z,24.92
2023-02-23T02:30:28.582Z,24.89
2023-02-23T02:33:23.678Z,24.89
2023-02-23T02:36:15.789Z,24.89
2023-02-23T02:38:54.953Z,24.89
2023-02-23T02:41:35.578Z,24.88
2023-02-23T02:44:12.172Z,24.87
2023-02-23T02:46:44.654Z,24.87
2023-02-23T02:49:17.741Z,24.87
2023-02-23T02:51:52.738Z,24.88
2023-02-23T02:54:29.169Z,24.87
2023-02-23T02:57:01.018Z,24.88
2023-02-23T02:59:46.810Z,24.74
2023-02-23T03:02:35.674Z,24.84
2023-02-23T03:05:22.237Z,24.82
2023-02-23T03:08:17.656Z,24.84
2023-02-23T03:11:10.658Z,24.82
2023-02-23T03:14:07.115Z,24.82
2023-02-23T03:17:01.538Z,24.82
2023-02-23T03:19:49.910Z,24.80
2023-02-23T03:22:40.995Z,24.80
2023-02-23T03:25:32.258Z,24.80
2023-02-23T03:28:30.126Z,24.79
2023-02-23T03:31:25.453Z,24.79
2023-02-23T03:34:19.314Z,24.78
2023-02-23T03:37:09.592Z,24.67
2023-02-23T03:39:59.895Z,24.78
2023-02-23T03:42:49.295Z,24.77
2023-02-23T03:45:40.143Z,24.78
2023-02-23T03:48:29.394Z,24.77
2023-02-23T03:51:18.560Z,24.76
2023-02-23T03:54:12.469Z,24.76
2023-02-23T03:57:01.613Z,24.75
2023-02-23T03:59:52.670Z,24.71
2023-02-23T04:02:41.315Z,24.74
2023-02-23T04:05:36.606Z,24.58
2023-02-23T04:08:25.889Z,24.74
2023-02-23T04:11:19.672Z,24.74
2023-02-23T04:13:51.792Z,24.72
2023-02-23T04:16:19.485Z,24.74
2023-02-23T04:18:48.801Z,24.77
2023-02-23T04:21:17.153Z,24.77
2023-02-23T04:23:45.386Z,24.78
2023-02-23T04:26:13.639Z,24.77
2023-02-23T04:28:41.600Z,24.77
2023-02-23T04:31:09.595Z,24.78
2023-02-23T04:33:37.646Z,24.79
2023-02-23T04:36:07.571Z,24.82
2023-02-23T04:38:35.457Z,24.80
2023-02-23T04:41:03.337Z,24.77
2023-02-23T04:43:31.337Z,24.80
2023-02-23T04:45:59.442Z,24.78
2023-02-23T04:48:27.452Z,24.77
2023-02-23T04:50:55.819Z,24.79
2023-02-23T04:53:27.142Z,24.81
2023-02-23T04:55:55.244Z,24.73
2023-02-23T04:58:23.226Z,24.76
2023-02-23T05:00:51.236Z,24.75
2023-02-23T05:03:19.217Z,24.73
2023-02-23T05:05:47.211Z,24.77
2023-02-23T05:08:15.194Z,24.76
2023-02-23T05:10:44.579Z,24.76
2023-02-23T05:13:12.582Z,24.76
2023-02-23T05:15:40.787Z,24.76
2023-02-23T05:18:08.983Z,24.63
2023-02-23T05:20:37.051Z,24.75
2023-02-23T05:23:05.169Z,24.73
2023-02-23T05:25:33.446Z,24.73
2023-02-23T05:28:02.699Z,24.73
2023-02-23T05:30:30.754Z,24.74
2023-02-23T05:32:58.823Z,24.73
2023-02-23T05:35:26.958Z,24.75
2023-02-23T05:37:54.908Z,24.73
2023-02-23T05:40:22.964Z,24.72
2023-02-23T05:42:50.950Z,24.71
2023-02-23T05:45:20.427Z,24.72
2023-02-23T05:47:49.281Z,24.72
2023-02-23T05:50:17.221Z,24.73
2023-02-23T05:52:45.364Z,24.74
2023-02-23T05:55:13.546Z,24.74
2023-02-23T05:57:42.762Z,24.73
2023-02-23T06:00:13.499Z,24.72
2023-02-23T06:02:43.037Z,24.75
2023-02-23T06:05:11.694Z,24.72
2023-02-23T06:07:39.868Z,24.72
2023-02-23T06:10:08.491Z,24.70
2023-02-23T06:12:36.690Z,24.68
2023-02-23T06:15:05.275Z,24.68
2023-02-23T06:17:33.741Z,24.65
2023-02-23T06:20:04.800Z,24.66
2023-02-23T06:22:32.800Z,24.65
2023-02-23T06:25:00.764Z,24.65
2023-02-23T06:27:28.736Z,24.65
2023-02-23T06:29:56.976Z,24.66
2023-02-23T06:32:25.479Z,24.64
2023-02-23T06:34:53.468Z,24.64
2023-02-23T06:37:22.758Z,24.65
2023-02-23T06:39:50.980Z,24.64
2023-02-23T06:42:18.967Z,24.63
2023-02-23T06:44:46.946Z,24.65
2023-02-23T06:47:15.015Z,24.67
2023-02-23T06:49:43.056Z,24.67
2023-02-23T06:52:13.478Z,24.67
2023-02-23T06:54:43.167Z,24.68
2023-02-23T06:57:11.098Z,24.66
2023-02-23T06:59:39.321Z,24.67
2023-02-23T07:02:07.567Z,24.66
2023-02-23T07:04:35.620Z,24.65
2023-02-23T07:07:03.772Z,24.63
2023-02-23T07:09:31.936Z,24.47
2023-02-23T07:12:01.669Z,24.47
2023-02-23T07:14:29.551Z,24.65
2023-02-23T07:16:57.620Z,24.66
2023-02-23T07:19:25.540Z,24.66
2023-02-23T07:21:53.646Z,24.67
2023-02-23T07:24:21.972Z,24.71
2023-02-23T07:26:50.311Z,24.71
2023-02-23T07:29:20.153Z,24.74
2023-02-23T07:31:50.054Z,24.74
2023-02-23T07:34:18.387Z,24.77
2023-02-23T07:36:46.426Z,24.78
2023-02-23T07:39:14.491Z,24.77
2023-02-23T07:41:42.562Z,24.76
2023-02-23T07:44:20.831Z,24.78
2023-02-23T07:46:49.588Z,24.77
2023-02-23T07:49:17.601Z,24.78
2023-02-23T07:51:45.600Z,24.75
2023-02-23T07:54:13.548Z,24.80
2023-02-23T07:56:41.523Z,24.80
2023-02-23T07:59:09.523Z,24.82
2023-02-23T08:01:38.967Z,24.85
2023-02-23T08:04:07.174Z,24.87
2023-02-23T08:06:35.063Z,24.90
2023-02-23T08:09:04.761Z,24.94
2023-02-23T08:11:32.846Z,24.98
2023-02-23T08:14:01.041Z,25.03
2023-02-23T08:16:29.700Z,25.03
2023-02-23T08:18:59.563Z,25.18
2023-02-23T08:21:29.344Z,25.23
2023-02-23T08:23:57.580Z,25.26
2023-02-23T08:26:26.105Z,25.28
2023-02-23T08:28:54.341Z,25.30
2023-02-23T08:31:24.411Z,25.28
2023-02-23T08:33:53.627Z,25.24
2023-02-23T08:36:23.318Z,25.24
2023-02-23T08:38:51.575Z,25.27
2023-02-23T08:41:19.936Z,25.28
2023-02-23T08:43:48.806Z,25.32
2023-02-23T08:46:18.858Z,25.34
2023-02-23T08:48:47.029Z,25.36
2023-02-23T08:51:15.668Z,25.41
2023-02-23T08:53:45.058Z,25.43
2023-02-23T08:56:14.745Z,25.42
2023-02-23T08:58:43.703Z,25.48
2023-02-23T09:01:19.079Z,25.53
2023-02-23T09:03:47.408Z,25.55
2023-02-23T09:06:19.295Z,25.59
2023-02-23T09:08:48.760Z,25.62
2023-02-23T09:11:16.777Z,25.63
2023-02-23T09:13:45.702Z,25.68
2023-02-23T09:16:13.742Z,25.68
2023-02-23T09:18:41.936Z,25.70
2023-02-23T09:21:18.928Z,25.71
2023-02-23T09:23:51.477Z,25.70
2023-02-23T09:26:21.138Z,25.70
2023-02-23T09:28:49.649Z,25.71
2023-02-23T09:31:20.637Z,25.72
2023-02-23T09:33:48.979Z,25.74
2023-02-23T09:36:19.015Z,25.77
2023-02-23T09:38:52.357Z,25.77
2023-02-23T09:41:52.297Z,25.76
2023-02-23T09:44:32.241Z,25.77
2023-02-23T09:47:11.413Z,25.80
2023-02-23T09:49:43.527Z,25.80
2023-02-23T09:52:19.326Z,25.82
2023-02-23T09:54:49.297Z,25.83
2023-02-23T09:57:23.727Z,25.84
2023-02-23T09:59:51.812Z,25.88
2023-02-23T10:02:30.554Z,25.94
2023-02-23T10:05:03.311Z,25.95
2023-02-23T10:07:38.884Z,25.97
2023-02-23T10:10:22.389Z,25.99
2023-02-23T10:13:01.500Z,26.03
2023-02-23T10:15:37.227Z,26.02
2023-02-23T10:18:16.083Z,26.04
2023-02-23T10:20:50.932Z,26.07
2023-02-23T10:23:25.272Z,26.09
2023-02-23T10:25:59.444Z,26.14
2023-02-23T10:28:29.723Z,26.18
2023-02-23T10:30:58.825Z,26.23
2023-02-23T10:33:34.917Z,26.30
2023-02-23T10:36:16.561Z,26.34
2023-02-23T10:38:44.604Z,26.32
2023-02-23T10:41:15.037Z,26.35
2023-02-23T10:43:43.543Z,26.35
2023-02-23T10:46:18.580Z,26.31
2023-02-23T10:48:48.654Z,26.26
2023-02-23T10:51:22.727Z,26.23
2023-02-23T10:53:52.941Z,26.24
2023-02-23T10:56:24.320Z,26.30
2023-02-23T10:58:55.138Z,26.34
2023-02-23T11:01:41.931Z,26.38
2023-02-23T11:04:20.430Z,26.38
2023-02-23T11:06:48.679Z,26.36
2023-02-23T11:09:41.744Z,26.41
2023-02-23T11:12:25.527Z,26.42
2023-02-23T11:14:55.160Z,26.43
2023-02-23T11:17:33.073Z,26.44
2023-02-23T11:20:03.739Z,26.43
2023-02-23T11:22:37.465Z,26.32
2023-02-23T11:25:16.810Z,26.42
2023-02-23T11:27:51.630Z,26.37
2023-02-23T11:30:24.585Z,26.36
2023-02-23T11:32:54.373Z,26.38
2023-02-23T11:35:31.724Z,26.36
2023-02-23T11:37:59.898Z,26.25
2023-02-23T11:40:30.084Z,26.05
2023-02-23T11:43:08.571Z,26.20
2023-02-23T11:45:45.958Z,26.13
2023-02-23T11:48:23.493Z,26.10
2023-02-23T11:50:51.757Z,26.07
2023-02-23T11:53:28.460Z,26.09
2023-02-23T11:56:07.908Z,26.06
2023-02-23T11:58:40.527Z,25.97
2023-02-23T12:01:12.400Z,26.01
2023-02-23T12:03:47.909Z,25.97
2023-02-23T12:06:30.579Z,26.00
2023-02-23T12:09:06.153Z,25.96
2023-02-23T12:11:40.649Z,25.95
2023-02-23T12:14:21.927Z,25.95
2023-02-23T12:16:53.972Z,25.93
2023-02-23T12:19:26.936Z,25.95
2023-02-23T12:22:03.419Z,25.97
2023-02-23T12:24:42.153Z,26.04
2023-02-23T12:27:15.388Z,26.04
2023-02-23T12:29:59.469Z,26.02
2023-02-23T12:32:32.304Z,25.97
2023-02-23T12:35:07.747Z,25.91
2023-02-23T12:37:40.296Z,25.84
2023-02-23T12:40:17.727Z,25.82
2023-02-23T12:42:55.261Z,25.81
2023-02-23T12:45:30.263Z,25.86
2023-02-23T12:48:07.535Z,25.90
2023-02-23T12:50:43.330Z,25.94
2023-02-23T12:53:21.654Z,26.01
2023-02-23T12:56:05.088Z,26.06
2023-02-23T12:58:42.057Z,26.10
2023-02-23T13:01:18.673Z,26.11
2023-02-23T13:03:58.281Z,26.12
2023-02-23T13:06:36.934Z,26.10
2023-02-23T13:09:19.220Z,26.05
2023-02-23T13:12:08.380Z,26.00
2023-02-23T13:14:44.264Z,25.95
2023-02-23T13:17:30.118Z,25.95
2023-02-23T13:20:02.413Z,25.99
2023-02-23T13:22:38.626Z,26.03
2023-02-23T13:25:21.601Z,25.97
2023-02-23T13:27:53.856Z,25.87
2023-02-23T13:30:22.722Z,25.84
2023-02-23T13:32:53.000Z,25.85
2023-02-23T13:35:22.002Z,25.80
2023-02-23T13:37:54.236Z,25.80
2023-02-23T13:40:30.859Z,25.85
2023-02-23T13:43:09.881Z,25.90
2023-02-23T13:45:57.663Z,25.97
2023-02-23T13:48:56.071Z,26.03
2023-02-23T13:51:34.031Z,26.05
2023-02-23T13:54:06.235Z,25.85
2023-02-23T13:56:42.926Z,26.07
2023-02-23T13:59:18.448Z,26.08
2023-02-23T14:01:49.024Z,26.08
2023-02-23T14:04:24.534Z,26.09
2023-02-23T14:06:56.585Z,26.09
2023-02-23T14:09:30.899Z,26.09
2023-02-23T14:12:05.975Z,26.14
2023-02-23T14:14:43.437Z,26.15
2023-02-23T14:17:50.577Z,26.13
2023-02-23T14:20:40.765Z,26.12
2023-02-23T14:23:53.531Z,26.15
2023-02-23T14:26:39.774Z,26.18
2023-02-23T14:29:28.023Z,26.24
2023-02-23T14:31:59.167Z,26.26
2023-02-23T14:34:49.898Z,26.33
2023-02-23T14:37:25.230Z,26.13
2023-02-23T14:39:55.762Z,26.31
2023-02-23T14:42:27.330Z,26.32
2023-02-23T14:44:56.450Z,26.08
2023-02-23T14:47:27.736Z,26.25
2023-02-23T14:49:58.471Z,26.22
2023-02-23T14:52:30.152Z,26.19
2023-02-23T14:55:15.514Z,26.16
2023-02-23T14:57:44.899Z,26.18
2023-02-23T15:00:23.060Z,26.24
2023-02-23T15:02:57.859Z,26.25
2023-02-23T15:05:27.987Z,26.22
2023-02-23T15:08:01.217Z,26.17
2023-02-23T15:10:33.075Z,26.07
2023-02-23T15:13:02.401Z,25.84
2023-02-23T15:15:31.817Z,25.84
2023-02-23T15:18:04.056Z,25.77
2023-02-23T15:23:04.811Z,25.71
2023-02-23T15:25:39.367Z,25.67
2023-02-23T15:28:23.726Z,25.58
2023-02-23T15:30:54.719Z,25.51
2023-02-23T15:33:28.739Z,25.47
2023-02-23T15:36:03.207Z,25.46
2023-02-23T15:38:43.558Z,25.45
2023-02-23T15:41:23.108Z,25.42
2023-02-23T15:43:51.285Z,25.44
2023-02-23T15:46:25.604Z,25.54
2023-02-23T15:48:55.808Z,25.60
2023-02-23T15:51:32.811Z,25.64
2023-02-23T15:54:03.887Z,25.67
2023-02-23T15:56:35.328Z,25.69
2023-02-23T15:59:08.287Z,25.67
2023-02-23T16:01:44.201Z,25.74
2023-02-23T16:04:18.828Z,25.59
2023-02-23T16:06:55.530Z,25.80
2023-02-23T16:09:29.885Z,25.84
2023-02-23T16:12:02.800Z,25.88
2023-02-23T16:14:35.141Z,25.94
2023-02-23T16:17:11.696Z,25.93
2023-02-23T16:19:41.973Z,25.95
2023-02-23T16:22:21.424Z,26.04
2023-02-23T16:25:02.862Z,26.04
2023-02-23T16:27:31.527Z,25.98
2023-02-23T16:30:01.655Z,26.02
2023-02-23T16:32:38.893Z,26.01
2023-02-23T16:35:16.041Z,26.00
2023-02-23T16:37:53.324Z,25.99
2023-02-23T16:40:22.772Z,25.98
2023-02-23T16:42:51.454Z,25.96
2023-02-23T16:45:20.653Z,25.91
2023-02-23T16:47:48.977Z,25.86
2023-02-23T16:50:21.932Z,25.80
2023-02-23T16:52:53.049Z,25.77
2023-02-23T16:55:25.757Z,25.75
2023-02-23T16:57:55.884Z,25.73
2023-02-23T17:00:26.843Z,25.69
2023-02-23T17:02:55.642Z,25.68
2023-02-23T17:05:24.730Z,25.70
2023-02-23T17:07:53.683Z,25.68
2023-02-23T17:10:26.108Z,25.63
2023-02-23T17:12:55.220Z,25.70
2023-02-23T17:15:25.143Z,25.69
2023-02-23T17:17:56.098Z,25.69
2023-02-23T17:20:25.990Z,25.69
2023-02-23T17:22:54.664Z,25.70
2023-02-23T17:25:26.642Z,25.55
2023-02-23T17:27:55.000Z,25.69
2023-02-23T17:30:23.916Z,25.70
2023-02-23T17:32:54.214Z,25.64
2023-02-23T17:35:22.579Z,25.62
2023-02-23T17:37:50.956Z,25.60
2023-02-23T17:40:26.258Z,25.59
2023-02-23T17:42:56.106Z,25.48
2023-02-23T17:45:24.564Z,25.56
2023-02-23T17:47:53.015Z,25.57
2023-02-23T17:50:21.705Z,25.56
2023-02-23T17:52:50.224Z,25.56
2023-02-23T17:55:19.769Z,25.59
2023-02-23T17:57:48.420Z,25.56
2023-02-23T18:00:19.762Z,25.54
2023-02-23T18:02:48.204Z,25.50
2023-02-23T18:05:16.519Z,25.52
2023-02-23T18:07:48.346Z,25.54
2023-02-23T18:10:17.393Z,25.55
2023-02-23T18:12:45.767Z,25.56
2023-02-23T18:15:13.819Z,25.54
2023-02-23T18:17:43.225Z,25.55
2023-02-23T18:20:14.929Z,25.54
2023-02-23T18:22:43.271Z,25.54
2023-02-23T18:25:20.682Z,25.56
2023-02-23T18:27:51.709Z,25.54
2023-02-23T18:30:20.294Z,25.52
2023-02-23T18:32:49.886Z,25.51
2023-02-23T18:35:18.069Z,25.53
2023-02-23T18:37:46.135Z,25.54
2023-02-23T18:40:21.257Z,25.55
2023-02-23T18:42:49.481Z,25.53
2023-02-23T18:45:18.063Z,25.55
2023-02-23T18:47:46.084Z,25.55
2023-02-23T18:50:19.116Z,25.58
2023-02-23T18:52:48.239Z,25.55
2023-02-23T18:55:16.526Z,25.55
2023-02-23T18:57:44.980Z,25.57
2023-02-23T19:00:14.903Z,25.56
2023-02-23T19:02:43.759Z,25.60
2023-02-23T19:05:12.885Z,25.62
2023-02-23T19:07:42.780Z,25.64
2023-02-23T19:10:14.473Z,25.66
2023-02-23T19:12:42.556Z,25.65
2023-02-23T19:15:12.340Z,25.64
2023-02-23T19:17:40.579Z,25.64
2023-02-23T19:20:13.071Z,25.66
2023-02-23T19:22:43.087Z,25.68
2023-02-23T19:25:15.392Z,25.58
2023-02-23T19:27:43.757Z,25.67
2023-02-23T19:30:14.287Z,25.69
2023-02-23T19:32:44.370Z,25.69
2023-02-23T19:35:15.196Z,25.71
2023-02-23T19:37:49.234Z,25.77
2023-02-23T19:40:20.802Z,25.82
2023-02-23T19:42:49.604Z,25.83
2023-02-23T19:45:18.352Z,25.86
2023-02-23T19:47:46.499Z,25.86
2023-02-23T19:50:18.833Z,25.88
2023-02-23T19:52:49.258Z,25.89
2023-02-23T19:55:17.300Z,25.88
2023-02-23T19:57:45.369Z,25.93
2023-02-23T20:00:14.587Z,25.94
2023-02-23T20:02:43.766Z,25.95
2023-02-23T20:05:13.789Z,25.96
2023-02-23T20:07:41.965Z,25.90
2023-02-23T20:10:16.964Z,25.94
2023-02-23T20:12:45.542Z,25.94
2023-02-23T20:15:14.866Z,25.88
2023-02-23T20:17:42.954Z,25.82
2023-02-23T20:20:12.379Z,25.96
2023-02-23T20:22:41.424Z,25.86
2023-02-23T20:25:12.627Z,25.88
2023-02-23T20:27:41.522Z,25.83
2023-02-23T20:30:10.856Z,25.82
2023-02-23T20:32:39.240Z,25.82
2023-02-23T20:35:07.812Z,25.83
2023-02-23T20:37:35.814Z,25.80
2023-02-23T20:40:15.813Z,25.77
2023-02-23T20:42:47.830Z,25.80
2023-02-23T20:45:19.701Z,25.80
2023-02-23T20:47:52.017Z,25.78
2023-02-23T20:50:21.606Z,25.75
2023-02-23T20:52:50.520Z,25.72
2023-02-23T20:55:19.866Z,25.74
2023-02-23T20:57:49.290Z,25.78
2023-02-23T21:00:22.714Z,25.81
2023-02-23T21:02:55.651Z,25.81
2023-02-23T21:05:25.679Z,25.59
2023-02-23T21:07:55.416Z,25.75
2023-02-23T21:10:23.483Z,25.72
2023-02-23T21:12:54.069Z,25.75
2023-02-23T21:15:22.198Z,25.78
2023-02-23T21:17:50.649Z,25.83
2023-02-23T21:20:20.960Z,25.88
2023-02-23T21:22:50.189Z,25.83
2023-02-23T21:25:20.508Z,25.81
2023-02-23T21:27:48.725Z,25.83
2023-02-23T21:30:20.451Z,25.85
2023-02-23T21:32:50.179Z,25.81
2023-02-23T21:35:19.148Z,25.91
2023-02-23T21:37:48.035Z,25.95
2023-02-23T21:40:20.638Z,25.97
2023-02-23T21:42:49.998Z,25.99
2023-02-23T21:45:20.264Z,25.95
2023-02-23T21:47:49.922Z,25.86
2023-02-23T21:50:19.113Z,25.87
2023-02-23T21:52:48.779Z,25.86
2023-02-23T21:55:21.895Z,25.80
2023-02-23T21:57:51.104Z,25.78
2023-02-23T22:00:20.972Z,25.80
2023-02-23T22:02:49.218Z,25.76
2023-02-23T22:05:18.813Z,25.81
2023-02-23T22:07:51.369Z,25.82
2023-02-23T22:10:21.320Z,25.78
2023-02-23T22:12:53.575Z,25.74
2023-02-23T22:15:27.179Z,25.36
2023-02-23T22:17:55.223Z,25.77
2023-02-23T22:20:23.587Z,25.82
2023-02-23T22:22:51.682Z,25.81
2023-02-23T22:25:21.036Z,25.77
2023-02-23T22:27:49.201Z,25.80
2023-02-23T22:30:17.420Z,25.80
2023-02-23T22:32:47.695Z,25.81
2023-02-23T22:35:15.768Z,25.77
2023-02-23T22:37:43.825Z,25.78
2023-02-23T22:40:15.144Z,25.78
2023-02-23T22:42:48.032Z,25.74
2023-02-23T22:45:17.247Z,25.69
2023-02-23T22:47:46.854Z,25.71
2023-02-23T22:50:18.074Z,25.69
2023-02-23T22:52:46.826Z,25.72
2023-02-23T22:55:14.933Z,25.72
2023-02-23T22:57:43.043Z,25.72
2023-02-23T23:00:13.027Z,25.71
2023-02-23T23:02:41.161Z,25.69
2023-02-23T23:05:13.414Z,25.70
2023-02-23T23:07:42.131Z,25.67
2023-02-23T23:10:12.091Z,25.69
2023-02-23T23:12:40.951Z,25.73
2023-02-23T23:15:14.842Z,25.73
2023-02-23T23:17:48.143Z,25.70
2023-02-23T23:20:22.939Z,25.68
2023-02-23T23:22:51.002Z,25.67
2023-02-23T23:25:23.123Z,25.67
2023-02-23T23:27:55.558Z,25.66
2023-02-23T23:30:26.225Z,25.67
2023-02-23T23:32:54.456Z,25.70
2023-02-23T23:35:25.964Z,25.68
2023-02-23T23:37:54.036Z,25.69
2023-02-23T23:40:24.426Z,25.71
2023-02-23T23:42:53.184Z,25.68
2023-02-23T23:45:24.267Z,25.63
2023-02-23T23:47:52.448Z,25.61
2023-02-23T23:50:26.643Z,25.58
2023-02-23T23:52:57.169Z,25.56
2023-02-23T23:55:31.025Z,25.54
2023-02-23T23:58:00.368Z,25.51
